sensor_id;sensor_type;location;lat;lon;timestamp;P1;durP1;ratioP1;P2;durP2;ratioP2
9224;SDS011;4647;48.072;11.616;2022-08-20T00:01:16;12.00;;;10.97;;
9224;SDS011;4647;48.072;11.616;2022-08-20T00:03:43;11.77;;;10.67;;
9224;SDS011;4647;48.072;11.616;2022-08-20T00:06:11;11.90;;;10.80;;
9224;SDS011;4647;48.072;11.616;2022-08-20T00:08:40;12.63;;;11.43;;
9224;SDS011;4647;48.072;11.616;2022-08-20T00:11:10;12.00;;;10.90;;
9224;SDS011;4647;48.072;11.616;2022-08-20T00:13:40;12.60;;;11.40;;
9224;SDS011;4647;48.072;11.616;2022-08-20T00:16:08;11.90;;;10.80;;
9224;SDS011;4647;48.072;11.616;2022-08-20T00:18:36;13.07;;;11.83;;
9224;SDS011;4647;48.072;11.616;2022-08-20T00:21:04;13.30;;;11.90;;
9224;SDS011;4647;48.072;11.616;2022-08-20T00:23:33;13.63;;;12.33;;
9224;SDS011;4647;48.072;11.616;2022-08-20T00:26:01;12.20;;;11.13;;
9224;SDS011;4647;48.072;11.616;2022-08-20T00:28:30;12.03;;;10.90;;
9224;SDS011;4647;48.072;11.616;2022-08-20T00:30:57;12.70;;;11.40;;
9224;SDS011;4647;48.072;11.616;2022-08-20T00:33:24;12.70;;;11.50;;
9224;SDS011;4647;48.072;11.616;2022-08-20T00:35:52;12.30;;;11.10;;
9224;SDS011;4647;48.072;11.616;2022-08-20T00:38:20;13.33;;;12.03;;
9224;SDS011;4647;48.072;11.616;2022-08-20T00:40:48;13.00;;;11.77;;
9224;SDS011;4647;48.072;11.616;2022-08-20T00:43:27;12.37;;;11.27;;
9224;SDS011;4647;48.072;11.616;2022-08-20T00:45:58;13.97;;;12.47;;
9224;SDS011;4647;48.072;11.616;2022-08-20T00:48:30;13.47;;;12.17;;
9224;SDS011;4647;48.072;11.616;2022-08-20T00:51:00;12.93;;;11.60;;
9224;SDS011;4647;48.072;11.616;2022-08-20T00:53:31;13.90;;;12.50;;
9224;SDS011;4647;48.072;11.616;2022-08-20T00:55:59;13.40;;;12.20;;
9224;SDS011;4647;48.072;11.616;2022-08-20T00:58:27;13.47;;;12.07;;
9224;SDS011;4647;48.072;11.616;2022-08-20T01:00:56;14.27;;;12.87;;
9224;SDS011;4647;48.072;11.616;2022-08-20T01:03:23;14.03;;;12.73;;
9224;SDS011;4647;48.072;11.616;2022-08-20T01:05:50;14.27;;;12.80;;
9224;SDS011;4647;48.072;11.616;2022-08-20T01:08:19;14.37;;;12.97;;
9224;SDS011;4647;48.072;11.616;2022-08-20T01:10:48;15.60;;;14.20;;
9224;SDS011;4647;48.072;11.616;2022-08-20T01:13:30;15.47;;;13.93;;
9224;SDS011;4647;48.072;11.616;2022-08-20T01:16:02;15.37;;;13.87;;
9224;SDS011;4647;48.072;11.616;2022-08-20T01:18:34;15.90;;;14.23;;
9224;SDS011;4647;48.072;11.616;2022-08-20T01:21:03;15.00;;;13.57;;
9224;SDS011;4647;48.072;11.616;2022-08-20T01:23:35;16.20;;;14.57;;
9224;SDS011;4647;48.072;11.616;2022-08-20T01:26:08;15.27;;;13.77;;
9224;SDS011;4647;48.072;11.616;2022-08-20T01:28:38;15.17;;;13.57;;
9224;SDS011;4647;48.072;11.616;2022-08-20T01:31:08;16.97;;;14.70;;
9224;SDS011;4647;48.072;11.616;2022-08-20T01:33:38;15.97;;;14.37;;
9224;SDS011;4647;48.072;11.616;2022-08-20T01:36:06;17.17;;;15.17;;
9224;SDS011;4647;48.072;11.616;2022-08-20T01:38:34;16.27;;;14.67;;
9224;SDS011;4647;48.072;11.616;2022-08-20T01:44:15;21.90;;;15.40;;
9224;SDS011;4647;48.072;11.616;2022-08-20T01:46:45;17.67;;;15.83;;
9224;SDS011;4647;48.072;11.616;2022-08-20T01:49:15;16.60;;;15.00;;
9224;SDS011;4647;48.072;11.616;2022-08-20T01:51:43;18.57;;;16.33;;
9224;SDS011;4647;48.072;11.616;2022-08-20T01:54:11;20.13;;;16.00;;
9224;SDS011;4647;48.072;11.616;2022-08-20T01:56:49;17.77;;;15.87;;
9224;SDS011;4647;48.072;11.616;2022-08-20T01:59:20;18.33;;;16.43;;
9224;SDS011;4647;48.072;11.616;2022-08-20T02:01:47;19.57;;;17.57;;
9224;SDS011;4647;48.072;11.616;2022-08-20T02:04:14;19.23;;;17.20;;
9224;SDS011;4647;48.072;11.616;2022-08-20T02:06:43;18.90;;;16.93;;
9224;SDS011;4647;48.072;11.616;2022-08-20T02:09:12;22.13;;;18.50;;
9224;SDS011;4647;48.072;11.616;2022-08-20T02:11:40;18.77;;;16.80;;
9224;SDS011;4647;48.072;11.616;2022-08-20T02:14:08;20.03;;;17.93;;
9224;SDS011;4647;48.072;11.616;2022-08-20T02:16:37;20.63;;;18.53;;
9224;SDS011;4647;48.072;11.616;2022-08-20T02:19:07;20.10;;;18.10;;
9224;SDS011;4647;48.072;11.616;2022-08-20T02:21:37;20.97;;;18.80;;
9224;SDS011;4647;48.072;11.616;2022-08-20T02:24:09;21.27;;;19.07;;
9224;SDS011;4647;48.072;11.616;2022-08-20T02:26:37;22.53;;;20.13;;
9224;SDS011;4647;48.072;11.616;2022-08-20T02:29:06;22.67;;;20.37;;
9224;SDS011;4647;48.072;11.616;2022-08-20T02:31:35;25.00;;;21.23;;
9224;SDS011;4647;48.072;11.616;2022-08-20T02:34:05;24.53;;;20.70;;
9224;SDS011;4647;48.072;11.616;2022-08-20T02:36:33;22.63;;;20.17;;
9224;SDS011;4647;48.072;11.616;2022-08-20T02:39:01;23.40;;;20.13;;
9224;SDS011;4647;48.072;11.616;2022-08-20T02:41:29;24.43;;;20.83;;
9224;SDS011;4647;48.072;11.616;2022-08-20T02:43:56;22.70;;;20.30;;
9224;SDS011;4647;48.072;11.616;2022-08-20T02:46:23;25.40;;;22.83;;
9224;SDS011;4647;48.072;11.616;2022-08-20T02:48:53;23.93;;;20.03;;
9224;SDS011;4647;48.072;11.616;2022-08-20T02:51:20;24.63;;;21.40;;
9224;SDS011;4647;48.072;11.616;2022-08-20T02:53:48;25.83;;;21.83;;
9224;SDS011;4647;48.072;11.616;2022-08-20T02:56:15;23.20;;;20.70;;
9224;SDS011;4647;48.072;11.616;2022-08-20T02:58:42;24.13;;;21.63;;
9224;SDS011;4647;48.072;11.616;2022-08-20T03:01:11;26.20;;;21.13;;
9224;SDS011;4647;48.072;11.616;2022-08-20T03:03:40;25.27;;;22.40;;
9224;SDS011;4647;48.072;11.616;2022-08-20T03:06:09;24.97;;;21.50;;
9224;SDS011;4647;48.072;11.616;2022-08-20T03:08:37;24.30;;;21.47;;
9224;SDS011;4647;48.072;11.616;2022-08-20T03:11:04;23.73;;;21.27;;
9224;SDS011;4647;48.072;11.616;2022-08-20T03:13:32;26.47;;;21.43;;
9224;SDS011;4647;48.072;11.616;2022-08-20T03:16:00;26.27;;;22.03;;
9224;SDS011;4647;48.072;11.616;2022-08-20T03:18:30;24.80;;;21.73;;
9224;SDS011;4647;48.072;11.616;2022-08-20T03:20:58;25.37;;;22.07;;
9224;SDS011;4647;48.072;11.616;2022-08-20T03:23:27;25.97;;;21.87;;
9224;SDS011;4647;48.072;11.616;2022-08-20T03:25:54;24.63;;;22.03;;
9224;SDS011;4647;48.072;11.616;2022-08-20T03:28:21;26.50;;;22.30;;
9224;SDS011;4647;48.072;11.616;2022-08-20T03:30:49;24.07;;;21.57;;
9224;SDS011;4647;48.072;11.616;2022-08-20T03:33:17;25.60;;;22.80;;
9224;SDS011;4647;48.072;11.616;2022-08-20T03:35:45;28.87;;;23.60;;
9224;SDS011;4647;48.072;11.616;2022-08-20T03:38:13;23.53;;;21.00;;
9224;SDS011;4647;48.072;11.616;2022-08-20T03:40:43;27.17;;;23.40;;
9224;SDS011;4647;48.072;11.616;2022-08-20T03:43:10;25.77;;;22.57;;
9224;SDS011;4647;48.072;11.616;2022-08-20T03:45:38;26.03;;;22.53;;
9224;SDS011;4647;48.072;11.616;2022-08-20T03:48:13;25.97;;;23.23;;
9224;SDS011;4647;48.072;11.616;2022-08-20T03:50:42;25.30;;;22.27;;
9224;SDS011;4647;48.072;11.616;2022-08-20T03:53:11;25.23;;;22.43;;
9224;SDS011;4647;48.072;11.616;2022-08-20T03:55:39;27.33;;;23.60;;
9224;SDS011;4647;48.072;11.616;2022-08-20T03:58:08;26.17;;;23.00;;
9224;SDS011;4647;48.072;11.616;2022-08-20T04:00:38;26.63;;;22.23;;
9224;SDS011;4647;48.072;11.616;2022-08-20T04:03:07;30.40;;;24.23;;
9224;SDS011;4647;48.072;11.616;2022-08-20T04:05:36;28.43;;;22.83;;
9224;SDS011;4647;48.072;11.616;2022-08-20T04:08:05;26.30;;;22.53;;
9224;SDS011;4647;48.072;11.616;2022-08-20T04:10:33;25.37;;;22.60;;
9224;SDS011;4647;48.072;11.616;2022-08-20T04:13:01;25.50;;;22.00;;
9224;SDS011;4647;48.072;11.616;2022-08-20T04:15:31;25.73;;;22.60;;
9224;SDS011;4647;48.072;11.616;2022-08-20T04:17:59;28.73;;;23.63;;
9224;SDS011;4647;48.072;11.616;2022-08-20T04:20:26;25.97;;;23.17;;
9224;SDS011;4647;48.072;11.616;2022-08-20T04:22:54;24.33;;;21.70;;
9224;SDS011;4647;48.072;11.616;2022-08-20T04:25:22;26.57;;;23.23;;
9224;SDS011;4647;48.072;11.616;2022-08-20T04:27:49;26.20;;;23.40;;
9224;SDS011;4647;48.072;11.616;2022-08-20T04:30:16;25.83;;;23.13;;
9224;SDS011;4647;48.072;11.616;2022-08-20T04:32:46;25.23;;;22.50;;
9224;SDS011;4647;48.072;11.616;2022-08-20T04:35:14;25.33;;;22.10;;
9224;SDS011;4647;48.072;11.616;2022-08-20T04:37:42;24.57;;;22.03;;
9224;SDS011;4647;48.072;11.616;2022-08-20T04:40:13;25.27;;;22.53;;
9224;SDS011;4647;48.072;11.616;2022-08-20T04:43:00;25.27;;;22.57;;
9224;SDS011;4647;48.072;11.616;2022-08-20T04:45:28;26.90;;;21.83;;
9224;SDS011;4647;48.072;11.616;2022-08-20T04:47:59;24.97;;;22.20;;
9224;SDS011;4647;48.072;11.616;2022-08-20T04:50:29;25.37;;;21.97;;
9224;SDS011;4647;48.072;11.616;2022-08-20T04:52:59;23.60;;;21.00;;
9224;SDS011;4647;48.072;11.616;2022-08-20T04:55:26;24.30;;;21.50;;
9224;SDS011;4647;48.072;11.616;2022-08-20T04:57:53;24.47;;;21.13;;
9224;SDS011;4647;48.072;11.616;2022-08-20T05:00:22;24.00;;;21.30;;
9224;SDS011;4647;48.072;11.616;2022-08-20T05:02:49;26.50;;;21.83;;
9224;SDS011;4647;48.072;11.616;2022-08-20T05:05:17;24.47;;;21.50;;
9224;SDS011;4647;48.072;11.616;2022-08-20T05:07:46;26.70;;;22.23;;
9224;SDS011;4647;48.072;11.616;2022-08-20T05:10:13;25.23;;;20.80;;
9224;SDS011;4647;48.072;11.616;2022-08-20T05:12:43;23.40;;;21.00;;
9224;SDS011;4647;48.072;11.616;2022-08-20T05:15:10;24.40;;;21.67;;
9224;SDS011;4647;48.072;11.616;2022-08-20T05:17:38;23.90;;;21.30;;
9224;SDS011;4647;48.072;11.616;2022-08-20T05:20:06;27.23;;;22.13;;
9224;SDS011;4647;48.072;11.616;2022-08-20T05:22:36;24.40;;;21.80;;
9224;SDS011;4647;48.072;11.616;2022-08-20T05:25:04;23.83;;;21.03;;
9224;SDS011;4647;48.072;11.616;2022-08-20T05:27:31;23.97;;;21.60;;
9224;SDS011;4647;48.072;11.616;2022-08-20T05:29:58;24.63;;;21.00;;
9224;SDS011;4647;48.072;11.616;2022-08-20T05:32:29;24.90;;;22.13;;
9224;SDS011;4647;48.072;11.616;2022-08-20T05:34:56;23.27;;;20.77;;
9224;SDS011;4647;48.072;11.616;2022-08-20T05:37:24;23.57;;;20.30;;
9224;SDS011;4647;48.072;11.616;2022-08-20T05:39:53;27.60;;;21.77;;
9224;SDS011;4647;48.072;11.616;2022-08-20T05:42:19;25.37;;;21.97;;
9224;SDS011;4647;48.072;11.616;2022-08-20T05:44:46;24.30;;;21.10;;
9224;SDS011;4647;48.072;11.616;2022-08-20T05:47:13;22.93;;;20.40;;
9224;SDS011;4647;48.072;11.616;2022-08-20T05:49:42;22.90;;;20.43;;
9224;SDS011;4647;48.072;11.616;2022-08-20T05:52:10;21.43;;;19.13;;
9224;SDS011;4647;48.072;11.616;2022-08-20T05:54:37;21.10;;;18.83;;
9224;SDS011;4647;48.072;11.616;2022-08-20T05:57:05;21.87;;;19.10;;
9224;SDS011;4647;48.072;11.616;2022-08-20T05:59:32;22.40;;;19.97;;
9224;SDS011;4647;48.072;11.616;2022-08-20T06:02:00;22.73;;;18.07;;
9224;SDS011;4647;48.072;11.616;2022-08-20T06:04:47;20.33;;;18.27;;
9224;SDS011;4647;48.072;11.616;2022-08-20T06:07:13;20.03;;;17.93;;
9224;SDS011;4647;48.072;11.616;2022-08-20T06:09:40;19.63;;;17.73;;
9224;SDS011;4647;48.072;11.616;2022-08-20T06:12:09;21.37;;;18.40;;
9224;SDS011;4647;48.072;11.616;2022-08-20T06:14:36;19.77;;;17.67;;
9224;SDS011;4647;48.072;11.616;2022-08-20T06:17:04;19.40;;;17.40;;
9224;SDS011;4647;48.072;11.616;2022-08-20T06:19:33;17.87;;;16.07;;
9224;SDS011;4647;48.072;11.616;2022-08-20T06:22:01;18.40;;;16.47;;
9224;SDS011;4647;48.072;11.616;2022-08-20T06:24:29;17.57;;;15.17;;
9224;SDS011;4647;48.072;11.616;2022-08-20T06:26:56;19.50;;;17.53;;
9224;SDS011;4647;48.072;11.616;2022-08-20T06:29:25;18.23;;;16.30;;
9224;SDS011;4647;48.072;11.616;2022-08-20T06:31:53;18.53;;;16.73;;
9224;SDS011;4647;48.072;11.616;2022-08-20T06:34:21;17.93;;;16.13;;
9224;SDS011;4647;48.072;11.616;2022-08-20T06:36:52;17.67;;;15.97;;
9224;SDS011;4647;48.072;11.616;2022-08-20T06:39:19;17.80;;;15.37;;
9224;SDS011;4647;48.072;11.616;2022-08-20T06:41:46;16.63;;;15.03;;
9224;SDS011;4647;48.072;11.616;2022-08-20T06:44:13;17.10;;;15.50;;
9224;SDS011;4647;48.072;11.616;2022-08-20T06:46:42;17.20;;;15.37;;
9224;SDS011;4647;48.072;11.616;2022-08-20T06:49:10;17.10;;;15.40;;
9224;SDS011;4647;48.072;11.616;2022-08-20T06:51:37;16.53;;;14.83;;
9224;SDS011;4647;48.072;11.616;2022-08-20T06:54:04;16.60;;;15.00;;
9224;SDS011;4647;48.072;11.616;2022-08-20T06:56:31;15.83;;;14.43;;
9224;SDS011;4647;48.072;11.616;2022-08-20T06:58:59;16.20;;;14.47;;
9224;SDS011;4647;48.072;11.616;2022-08-20T07:01:26;14.63;;;13.23;;
9224;SDS011;4647;48.072;11.616;2022-08-20T07:03:54;15.50;;;13.90;;
9224;SDS011;4647;48.072;11.616;2022-08-20T07:06:23;15.73;;;14.30;;
9224;SDS011;4647;48.072;11.616;2022-08-20T07:08:50;15.73;;;13.77;;
9224;SDS011;4647;48.072;11.616;2022-08-20T07:11:18;15.90;;;14.23;;
9224;SDS011;4647;48.072;11.616;2022-08-20T07:13:45;16.40;;;14.57;;
9224;SDS011;4647;48.072;11.616;2022-08-20T07:16:13;15.73;;;14.13;;
9224;SDS011;4647;48.072;11.616;2022-08-20T07:18:40;16.37;;;14.47;;
9224;SDS011;4647;48.072;11.616;2022-08-20T07:21:09;14.63;;;13.30;;
9224;SDS011;4647;48.072;11.616;2022-08-20T07:23:36;15.47;;;13.90;;
9224;SDS011;4647;48.072;11.616;2022-08-20T07:26:06;16.17;;;14.53;;
9224;SDS011;4647;48.072;11.616;2022-08-20T07:28:33;15.60;;;14.07;;
9224;SDS011;4647;48.072;11.616;2022-08-20T07:31:00;15.37;;;13.87;;
9224;SDS011;4647;48.072;11.616;2022-08-20T07:33:44;15.87;;;14.07;;
9224;SDS011;4647;48.072;11.616;2022-08-20T07:36:12;15.50;;;13.90;;
9224;SDS011;4647;48.072;11.616;2022-08-20T07:38:39;16.57;;;13.80;;
9224;SDS011;4647;48.072;11.616;2022-08-20T07:41:10;15.73;;;13.60;;
9224;SDS011;4647;48.072;11.616;2022-08-20T07:43:38;16.83;;;13.90;;
9224;SDS011;4647;48.072;11.616;2022-08-20T07:46:06;14.73;;;13.20;;
9224;SDS011;4647;48.072;11.616;2022-08-20T07:48:34;15.37;;;12.97;;
9224;SDS011;4647;48.072;11.616;2022-08-20T07:51:03;17.50;;;13.50;;
9224;SDS011;4647;48.072;11.616;2022-08-20T07:53:33;14.27;;;12.77;;
9224;SDS011;4647;48.072;11.616;2022-08-20T07:56:02;14.70;;;13.30;;
9224;SDS011;4647;48.072;11.616;2022-08-20T07:58:31;15.50;;;13.77;;
9224;SDS011;4647;48.072;11.616;2022-08-20T08:00:59;23.27;;;15.17;;
9224;SDS011;4647;48.072;11.616;2022-08-20T08:03:26;15.33;;;12.43;;
9224;SDS011;4647;48.072;11.616;2022-08-20T08:05:54;15.87;;;12.97;;
9224;SDS011;4647;48.072;11.616;2022-08-20T08:08:21;16.07;;;12.87;;
9224;SDS011;4647;48.072;11.616;2022-08-20T08:10:54;12.20;;;11.10;;
9224;SDS011;4647;48.072;11.616;2022-08-20T08:13:26;17.50;;;12.67;;
9224;SDS011;4647;48.072;11.616;2022-08-20T08:15:56;13.23;;;11.93;;
9224;SDS011;4647;48.072;11.616;2022-08-20T08:18:25;12.60;;;11.30;;
9224;SDS011;4647;48.072;11.616;2022-08-20T08:20:56;14.10;;;12.07;;
9224;SDS011;4647;48.072;11.616;2022-08-20T08:23:23;17.00;;;11.80;;
9224;SDS011;4647;48.072;11.616;2022-08-20T08:25:53;14.00;;;12.50;;
9224;SDS011;4647;48.072;11.616;2022-08-20T08:28:20;18.00;;;12.30;;
9224;SDS011;4647;48.072;11.616;2022-08-20T08:30:48;14.40;;;12.90;;
9224;SDS011;4647;48.072;11.616;2022-08-20T08:33:18;17.70;;;14.93;;
9224;SDS011;4647;48.072;11.616;2022-08-20T08:35:53;14.30;;;12.10;;
9224;SDS011;4647;48.072;11.616;2022-08-20T08:38:20;18.40;;;11.77;;
9224;SDS011;4647;48.072;11.616;2022-08-20T08:40:48;16.47;;;14.63;;
9224;SDS011;4647;48.072;11.616;2022-08-20T08:43:20;12.90;;;11.70;;
9224;SDS011;4647;48.072;11.616;2022-08-20T08:45:52;12.43;;;11.23;;
9224;SDS011;4647;48.072;11.616;2022-08-20T08:48:27;14.03;;;12.53;;
9224;SDS011;4647;48.072;11.616;2022-08-20T08:50:57;14.07;;;12.13;;
9224;SDS011;4647;48.072;11.616;2022-08-20T08:53:26;14.13;;;12.00;;
9224;SDS011;4647;48.072;11.616;2022-08-20T08:56:00;13.57;;;12.07;;
9224;SDS011;4647;48.072;11.616;2022-08-20T08:58:28;13.30;;;11.97;;
9224;SDS011;4647;48.072;11.616;2022-08-20T09:00:58;13.83;;;12.43;;
9224;SDS011;4647;48.072;11.616;2022-08-20T09:03:29;14.77;;;12.47;;
9224;SDS011;4647;48.072;11.616;2022-08-20T09:05:59;13.20;;;11.90;;
9224;SDS011;4647;48.072;11.616;2022-08-20T09:08:28;13.33;;;12.03;;
9224;SDS011;4647;48.072;11.616;2022-08-20T09:11:02;13.83;;;12.43;;
9224;SDS011;4647;48.072;11.616;2022-08-20T09:13:32;14.63;;;12.90;;
9224;SDS011;4647;48.072;11.616;2022-08-20T09:15:59;21.23;;;12.53;;
9224;SDS011;4647;48.072;11.616;2022-08-20T09:18:26;16.30;;;12.07;;
9224;SDS011;4647;48.072;11.616;2022-08-20T09:20:54;13.83;;;12.43;;
9224;SDS011;4647;48.072;11.616;2022-08-20T09:23:21;15.07;;;12.33;;
9224;SDS011;4647;48.072;11.616;2022-08-20T09:25:48;15.67;;;12.63;;
9224;SDS011;4647;48.072;11.616;2022-08-20T09:28:14;16.13;;;13.43;;
9224;SDS011;4647;48.072;11.616;2022-08-20T09:30:43;14.03;;;12.63;;
9224;SDS011;4647;48.072;11.616;2022-08-20T09:33:10;15.17;;;12.53;;
9224;SDS011;4647;48.072;11.616;2022-08-20T09:35:37;13.83;;;11.90;;
9224;SDS011;4647;48.072;11.616;2022-08-20T09:38:04;14.53;;;13.03;;
9224;SDS011;4647;48.072;11.616;2022-08-20T09:40:31;19.10;;;14.40;;
9224;SDS011;4647;48.072;11.616;2022-08-20T09:42:58;13.50;;;12.20;;
9224;SDS011;4647;48.072;11.616;2022-08-20T09:45:27;14.63;;;12.50;;
9224;SDS011;4647;48.072;11.616;2022-08-20T09:47:56;13.67;;;12.13;;
9224;SDS011;4647;48.072;11.616;2022-08-20T09:50:24;12.30;;;11.20;;
9224;SDS011;4647;48.072;11.616;2022-08-20T09:52:52;13.53;;;12.13;;
9224;SDS011;4647;48.072;11.616;2022-08-20T09:55:23;12.73;;;11.27;;
9224;SDS011;4647;48.072;11.616;2022-08-20T09:57:55;13.57;;;12.23;;
9224;SDS011;4647;48.072;11.616;2022-08-20T10:00:23;13.40;;;12.03;;
9224;SDS011;4647;48.072;11.616;2022-08-20T10:02:50;12.57;;;11.30;;
9224;SDS011;4647;48.072;11.616;2022-08-20T10:05:18;12.10;;;10.90;;
9224;SDS011;4647;48.072;11.616;2022-08-20T10:07:45;12.37;;;11.27;;
9224;SDS011;4647;48.072;11.616;2022-08-20T10:10:13;16.10;;;12.33;;
9224;SDS011;4647;48.072;11.616;2022-08-20T10:12:40;12.37;;;11.23;;
9224;SDS011;4647;48.072;11.616;2022-08-20T10:15:08;13.63;;;11.40;;
9224;SDS011;4647;48.072;11.616;2022-08-20T10:17:36;12.93;;;11.70;;
9224;SDS011;4647;48.072;11.616;2022-08-20T10:20:04;12.53;;;11.43;;
9224;SDS011;4647;48.072;11.616;2022-08-20T10:22:34;15.53;;;13.73;;
9224;SDS011;4647;48.072;11.616;2022-08-20T10:25:01;12.40;;;11.30;;
9224;SDS011;4647;48.072;11.616;2022-08-20T10:27:29;14.70;;;12.73;;
9224;SDS011;4647;48.072;11.616;2022-08-20T10:29:56;13.33;;;12.03;;
9224;SDS011;4647;48.072;11.616;2022-08-20T10:32:23;13.10;;;11.53;;
9224;SDS011;4647;48.072;11.616;2022-08-20T10:34:50;14.20;;;12.60;;
9224;SDS011;4647;48.072;11.616;2022-08-20T10:37:17;13.60;;;12.30;;
9224;SDS011;4647;48.072;11.616;2022-08-20T10:39:49;12.00;;;10.80;;
9224;SDS011;4647;48.072;11.616;2022-08-20T10:42:16;12.77;;;11.57;;
9224;SDS011;4647;48.072;11.616;2022-08-20T10:44:43;12.80;;;11.07;;
9224;SDS011;4647;48.072;11.616;2022-08-20T10:47:14;12.63;;;11.33;;
9224;SDS011;4647;48.072;11.616;2022-08-20T10:49:43;13.50;;;12.20;;
9224;SDS011;4647;48.072;11.616;2022-08-20T10:52:10;14.30;;;12.50;;
9224;SDS011;4647;48.072;11.616;2022-08-20T10:54:37;14.00;;;12.70;;
9224;SDS011;4647;48.072;11.616;2022-08-20T10:57:07;13.70;;;12.40;;
9224;SDS011;4647;48.072;11.616;2022-08-20T10:59:38;12.47;;;11.37;;
9224;SDS011;4647;48.072;11.616;2022-08-20T11:02:05;13.00;;;11.73;;
9224;SDS011;4647;48.072;11.616;2022-08-20T11:04:32;13.10;;;12.00;;
9224;SDS011;4647;48.072;11.616;2022-08-20T11:07:08;13.90;;;12.70;;
9224;SDS011;4647;48.072;11.616;2022-08-20T11:09:39;13.73;;;12.33;;
9224;SDS011;4647;48.072;11.616;2022-08-20T11:12:08;14.23;;;12.87;;
9224;SDS011;4647;48.072;11.616;2022-08-20T11:14:35;13.83;;;12.53;;
9224;SDS011;4647;48.072;11.616;2022-08-20T11:17:02;14.07;;;12.47;;
9224;SDS011;4647;48.072;11.616;2022-08-20T11:19:30;12.50;;;11.40;;
9224;SDS011;4647;48.072;11.616;2022-08-20T11:21:57;12.23;;;11.13;;
9224;SDS011;4647;48.072;11.616;2022-08-20T11:24:24;13.13;;;11.80;;
9224;SDS011;4647;48.072;11.616;2022-08-20T11:26:51;12.70;;;11.60;;
9224;SDS011;4647;48.072;11.616;2022-08-20T11:29:19;13.00;;;11.73;;
9224;SDS011;4647;48.072;11.616;2022-08-20T11:31:48;12.80;;;11.60;;
9224;SDS011;4647;48.072;11.616;2022-08-20T11:34:15;13.00;;;11.47;;
9224;SDS011;4647;48.072;11.616;2022-08-20T11:36:42;12.70;;;11.57;;
9224;SDS011;4647;48.072;11.616;2022-08-20T11:39:10;11.97;;;10.97;;
9224;SDS011;4647;48.072;11.616;2022-08-20T11:41:37;12.33;;;11.23;;
9224;SDS011;4647;48.072;11.616;2022-08-20T11:44:04;12.57;;;11.37;;
9224;SDS011;4647;48.072;11.616;2022-08-20T11:49:01;13.10;;;11.90;;
9224;SDS011;4647;48.072;11.616;2022-08-20T11:51:28;15.13;;;12.13;;
9224;SDS011;4647;48.072;11.616;2022-08-20T11:53:55;12.27;;;11.07;;
9224;SDS011;4647;48.072;11.616;2022-08-20T11:56:21;13.43;;;12.03;;
9224;SDS011;4647;48.072;11.616;2022-08-20T11:58:48;11.93;;;10.73;;
9224;SDS011;4647;48.072;11.616;2022-08-20T12:01:15;12.13;;;10.83;;
9224;SDS011;4647;48.072;11.616;2022-08-20T12:03:43;12.07;;;10.97;;
9224;SDS011;4647;48.072;11.616;2022-08-20T12:06:10;12.27;;;11.17;;
9224;SDS011;4647;48.072;11.616;2022-08-20T12:08:37;11.40;;;10.30;;
9224;SDS011;4647;48.072;11.616;2022-08-20T12:11:04;11.40;;;10.40;;
9224;SDS011;4647;48.072;11.616;2022-08-20T12:13:32;9.83;;;8.93;;
9224;SDS011;4647;48.072;11.616;2022-08-20T12:16:00;8.00;;;7.27;;
9224;SDS011;4647;48.072;11.616;2022-08-20T12:18:27;8.00;;;7.20;;
9224;SDS011;4647;48.072;11.616;2022-08-20T12:20:57;10.67;;;8.40;;
9224;SDS011;4647;48.072;11.616;2022-08-20T12:23:24;8.20;;;7.40;;
9224;SDS011;4647;48.072;11.616;2022-08-20T12:25:51;7.80;;;7.10;;
9224;SDS011;4647;48.072;11.616;2022-08-20T12:28:18;8.73;;;7.93;;
9224;SDS011;4647;48.072;11.616;2022-08-20T12:30:45;8.10;;;7.40;;
9224;SDS011;4647;48.072;11.616;2022-08-20T12:33:11;8.00;;;7.20;;
9224;SDS011;4647;48.072;11.616;2022-08-20T12:35:39;8.57;;;7.67;;
9224;SDS011;4647;48.072;11.616;2022-08-20T12:38:07;7.20;;;6.50;;
9224;SDS011;4647;48.072;11.616;2022-08-20T12:40:34;7.60;;;6.90;;
9224;SDS011;4647;48.072;11.616;2022-08-20T12:43:01;7.23;;;6.60;;
9224;SDS011;4647;48.072;11.616;2022-08-20T12:45:29;6.73;;;6.10;;
9224;SDS011;4647;48.072;11.616;2022-08-20T12:48:01;6.60;;;6.00;;
9224;SDS011;4647;48.072;11.616;2022-08-20T12:50:30;6.67;;;6.03;;
9224;SDS011;4647;48.072;11.616;2022-08-20T12:52:58;7.33;;;5.77;;
9224;SDS011;4647;48.072;11.616;2022-08-20T12:55:27;7.93;;;5.53;;
9224;SDS011;4647;48.072;11.616;2022-08-20T12:57:55;8.13;;;5.03;;
9224;SDS011;4647;48.072;11.616;2022-08-20T13:00:25;5.60;;;5.10;;
9224;SDS011;4647;48.072;11.616;2022-08-20T13:02:53;6.90;;;5.80;;
9224;SDS011;4647;48.072;11.616;2022-08-20T13:05:22;6.47;;;5.90;;
9224;SDS011;4647;48.072;11.616;2022-08-20T13:07:49;6.83;;;6.13;;
9224;SDS011;4647;48.072;11.616;2022-08-20T13:10:18;7.40;;;5.77;;
9224;SDS011;4647;48.072;11.616;2022-08-20T13:12:48;7.50;;;6.77;;
9224;SDS011;4647;48.072;11.616;2022-08-20T13:15:16;6.90;;;6.20;;
9224;SDS011;4647;48.072;11.616;2022-08-20T13:17:43;6.23;;;5.63;;
9224;SDS011;4647;48.072;11.616;2022-08-20T13:20:11;10.10;;;6.77;;
9224;SDS011;4647;48.072;11.616;2022-08-20T13:22:39;6.33;;;5.70;;
9224;SDS011;4647;48.072;11.616;2022-08-20T13:25:07;8.00;;;6.90;;
9224;SDS011;4647;48.072;11.616;2022-08-20T13:27:35;7.43;;;6.77;;
9224;SDS011;4647;48.072;11.616;2022-08-20T13:30:04;8.20;;;7.50;;
9224;SDS011;4647;48.072;11.616;2022-08-20T13:32:33;9.07;;;7.80;;
9224;SDS011;4647;48.072;11.616;2022-08-20T13:35:00;7.13;;;6.43;;
9224;SDS011;4647;48.072;11.616;2022-08-20T13:37:27;8.97;;;6.80;;
9224;SDS011;4647;48.072;11.616;2022-08-20T13:39:55;10.27;;;6.27;;
9224;SDS011;4647;48.072;11.616;2022-08-20T13:42:23;7.43;;;6.67;;
9224;SDS011;4647;48.072;11.616;2022-08-20T13:44:51;6.90;;;5.50;;
9224;SDS011;4647;48.072;11.616;2022-08-20T13:47:21;6.27;;;5.67;;
9224;SDS011;4647;48.072;11.616;2022-08-20T13:49:53;6.30;;;5.70;;
9224;SDS011;4647;48.072;11.616;2022-08-20T13:52:20;6.00;;;5.30;;
9224;SDS011;4647;48.072;11.616;2022-08-20T13:54:47;6.27;;;5.67;;
9224;SDS011;4647;48.072;11.616;2022-08-20T13:57:15;9.67;;;5.60;;
9224;SDS011;4647;48.072;11.616;2022-08-20T13:59:44;6.17;;;5.57;;
9224;SDS011;4647;48.072;11.616;2022-08-20T14:02:12;8.27;;;5.40;;
9224;SDS011;4647;48.072;11.616;2022-08-20T14:04:41;5.63;;;5.03;;
9224;SDS011;4647;48.072;11.616;2022-08-20T14:07:09;5.00;;;4.47;;
9224;SDS011;4647;48.072;11.616;2022-08-20T14:09:37;5.30;;;4.80;;
9224;SDS011;4647;48.072;11.616;2022-08-20T14:12:04;5.87;;;5.17;;
9224;SDS011;4647;48.072;11.616;2022-08-20T14:14:32;5.20;;;4.53;;
9224;SDS011;4647;48.072;11.616;2022-08-20T14:16:59;4.63;;;4.23;;
9224;SDS011;4647;48.072;11.616;2022-08-20T14:19:36;3.20;;;2.77;;
9224;SDS011;4647;48.072;11.616;2022-08-20T14:22:04;5.00;;;2.70;;
9224;SDS011;4647;48.072;11.616;2022-08-20T14:24:31;3.40;;;2.80;;
9224;SDS011;4647;48.072;11.616;2022-08-20T14:27:01;2.80;;;2.20;;
9224;SDS011;4647;48.072;11.616;2022-08-20T14:29:30;9.10;;;2.80;;
9224;SDS011;4647;48.072;11.616;2022-08-20T14:31:58;5.87;;;2.67;;
9224;SDS011;4647;48.072;11.616;2022-08-20T14:34:25;3.40;;;2.70;;
9224;SDS011;4647;48.072;11.616;2022-08-20T14:36:52;4.03;;;2.60;;
9224;SDS011;4647;48.072;11.616;2022-08-20T14:39:20;5.40;;;2.60;;
9224;SDS011;4647;48.072;11.616;2022-08-20T14:41:48;3.23;;;2.93;;
9224;SDS011;4647;48.072;11.616;2022-08-20T14:44:15;4.10;;;2.40;;
9224;SDS011;4647;48.072;11.616;2022-08-20T14:46:42;2.40;;;2.17;;
9224;SDS011;4647;48.072;11.616;2022-08-20T14:49:08;4.50;;;2.83;;
9224;SDS011;4647;48.072;11.616;2022-08-20T14:51:35;3.20;;;2.40;;